Methoni, Greece
Current Conditions -  °F | °C
As of 11:50 PM on Monday 24 Nov 2014 (Local Time) from LGKL Reporting Station
Clear Clear  
Wind Chill:   Ceiling: Unl
Heat Index:   Visibility: 6mi
Dew Point:   Wind: 0mph
Humidity: 87%   Direction: NA
Pressure: 30.15"   Gusts: NA
Location:  36.82°N, 21.7°E
Report Text: LGKL 242050Z 00000KT CAVOK 07/05 Q1021
Loading
Personal Weather Stations






























Interactive Weather Map New forecast layout! Learn more

10-Day Weather Forecast

Advertisements
Track Severe Weather on mobile